Time;durP1;ratioP1;P1;durP2;ratioP2;P2;SDS_P1;SDS_P2;PMS_P1;PMS_P2;Temp;Humidity;BMP_temperature;BMP_pressure;BME280_temperature;BME280_humidity;BME280_pressure;Samples;Min_cycle;Max_cycle;Signal;HPM_P1;HPM_P2
2021/09/16 00:01:53;;;;;;;7.30;6.60;;;;;;;16.18;100.00;100456.41;5134214;27;20169;-73
2021/09/16 00:04:18;;;;;;;5.87;5.17;;;;;;;16.15;100.00;100451.63;5133834;27;20662;-72
2021/09/16 00:06:44;;;;;;;6.23;5.70;;;;;;;16.15;100.00;100462.63;5134448;27;20226;-73
2021/09/16 00:09:10;;;;;;;6.00;5.50;;;;;;;16.11;100.00;100453.47;5134475;27;20192;-72
2021/09/16 00:11:36;;;;;;;5.67;4.33;;;;;;;16.08;100.00;100448.66;5133995;27;20531;-72
2021/09/16 00:14:01;;;;;;;4.50;4.10;;;;;;;16.04;100.00;100448.53;5134267;27;20177;-73
2021/09/16 00:16:27;;;;;;;4.93;4.53;;;;;;;16.00;100.00;100447.63;5134119;27;20172;-72
2021/09/16 00:18:52;;;;;;;4.80;4.40;;;;;;;16.01;100.00;100442.91;5133986;27;20204;-72
2021/09/16 00:21:18;;;;;;;3.57;3.27;;;;;;;15.99;100.00;100454.28;5134039;27;20528;-72
2021/09/16 00:23:44;;;;;;;5.60;4.10;;;;;;;15.96;100.00;100448.69;5133708;27;20639;-72
2021/09/16 00:26:09;;;;;;;3.67;3.37;;;;;;;15.94;100.00;100456.50;5134099;27;20175;-72
2021/09/16 00:28:35;;;;;;;5.17;3.50;;;;;;;15.93;100.00;100447.44;5134202;27;20181;-72
2021/09/16 00:31:00;;;;;;;3.43;3.13;;;;;;;15.92;100.00;100451.34;5134315;27;20615;-72
2021/09/16 00:33:25;;;;;;;3.43;3.13;;;;;;;15.93;100.00;100452.13;5133777;27;20179;-72
2021/09/16 00:35:51;;;;;;;3.67;3.17;;;;;;;15.95;100.00;100458.09;5133695;27;20213;-72
2021/09/16 00:38:16;;;;;;;4.80;3.40;;;;;;;15.97;100.00;100455.78;5133790;27;20200;-72
2021/09/16 00:40:41;;;;;;;2.63;2.43;;;;;;;15.97;100.00;100451.09;5133924;27;20180;-72
2021/09/16 00:43:07;;;;;;;3.47;2.53;;;;;;;16.02;100.00;100463.81;5133741;27;20228;-73
2021/09/16 00:45:32;;;;;;;3.23;2.93;;;;;;;16.03;100.00;100460.72;5133250;27;20267;-72
2021/09/16 00:47:57;;;;;;;4.00;2.70;;;;;;;16.03;100.00;100468.97;5133888;27;20183;-73
2021/09/16 00:50:24;;;;;;;6.70;2.97;;;;;;;16.04;100.00;100464.25;5133727;27;20173;-73
2021/09/16 00:52:50;;;;;;;3.27;2.87;;;;;;;16.01;100.00;100464.97;5133538;27;20871;-72
2021/09/16 00:55:17;;;;;;;3.17;2.87;;;;;;;15.96;100.00;100462.47;5132110;27;20393;-73
2021/09/16 00:57:50;;;;;;;4.30;2.60;;;;;;;15.95;100.00;100471.88;5133486;27;20263;-72
2021/09/16 01:00:16;;;;;;;3.13;2.57;;;;;;;15.91;100.00;100463.50;5133534;27;20549;-73
2021/09/16 01:02:42;;;;;;;4.00;2.30;;;;;;;15.92;100.00;100464.31;5133407;27;20504;-72
2021/09/16 01:05:08;;;;;;;4.77;2.10;;;;;;;15.90;100.00;100470.13;5133280;27;20185;-72
2021/09/16 01:07:36;;;;;;;2.70;2.17;;;;;;;15.90;100.00;100459.13;5132321;27;20169;-72
2021/09/16 01:10:02;;;;;;;2.33;1.80;;;;;;;15.91;100.00;100458.00;5140643;27;20181;-72
2021/09/16 01:12:28;;;;;;;2.50;2.30;;;;;;;15.89;100.00;100459.47;5132207;27;20185;-72
2021/09/16 01:14:53;;;;;;;1.53;1.43;;;;;;;15.84;100.00;100463.28;5133470;27;20559;-72
2021/09/16 01:17:19;;;;;;;2.97;2.10;;;;;;;15.80;100.00;100459.63;5133353;27;20251;-72
2021/09/16 01:19:44;;;;;;;4.97;2.53;;;;;;;15.79;100.00;100465.47;5133315;27;20257;-72
2021/09/16 01:22:21;;;;;;;6.43;2.67;;;;;;;15.79;100.00;100480.03;5133321;27;20642;-72
2021/09/16 01:24:47;;;;;;;2.50;2.30;;;;;;;15.78;100.00;100475.69;5132974;27;20199;-72
2021/09/16 01:27:12;;;;;;;2.80;2.60;;;;;;;15.77;100.00;100477.63;5132732;27;20176;-72
2021/09/16 01:29:38;;;;;;;3.03;2.73;;;;;;;15.78;100.00;100470.19;5132639;27;20188;-72
2021/09/16 01:32:05;;;;;;;3.07;2.80;;;;;;;15.74;100.00;100552.69;5131278;27;20172;-72
2021/09/16 01:34:31;;;;;;;2.27;2.17;;;;;;;15.77;100.00;100494.16;5111799;27;20181;-72
2021/09/16 01:36:56;;;;;;;3.17;2.87;;;;;;;15.77;100.00;100471.34;5132336;27;20181;-72
2021/09/16 01:39:22;;;;;;;3.67;2.70;;;;;;;15.75;100.00;100477.16;5132268;27;20551;-73
2021/09/16 01:41:47;;;;;;;3.00;1.80;;;;;;;15.75;100.00;100481.88;5132255;27;20267;-72
2021/09/16 01:44:14;;;;;;;3.00;2.73;;;;;;;15.73;100.00;100484.16;5132262;27;20212;-72
2021/09/16 01:46:39;;;;;;;6.03;3.03;;;;;;;15.71;100.00;100483.72;5131860;27;20310;-72
2021/09/16 01:49:05;;;;;;;2.30;2.10;;;;;;;15.72;100.00;100480.59;5132369;27;20251;-72
2021/09/16 01:51:33;;;;;;;7.93;2.50;;;;;;;15.74;100.00;100485.78;5132269;27;20737;-72
2021/09/16 01:53:58;;;;;;;2.43;2.10;;;;;;;15.75;100.00;100479.13;5131918;27;20180;-72
2021/09/16 01:56:24;;;;;;;2.50;2.17;;;;;;;15.79;100.00;100482.00;5131758;27;20180;-73
2021/09/16 01:58:49;;;;;;;2.60;2.40;;;;;;;15.77;100.00;100480.41;5131989;27;20342;-73
2021/09/16 02:01:15;;;;;;;1.90;1.80;;;;;;;15.77;100.00;100485.09;5132030;27;20165;-72
2021/09/16 02:03:40;;;;;;;3.23;1.90;;;;;;;15.72;100.00;100482.56;5131802;27;20270;-72
2021/09/16 02:06:06;;;;;;;2.30;2.17;;;;;;;15.73;100.00;100484.16;5131628;27;20177;-72
2021/09/16 02:08:31;;;;;;;3.27;2.20;;;;;;;15.72;100.00;100479.81;5113364;27;20313;-72
2021/09/16 02:10:56;;;;;;;2.03;1.83;;;;;;;15.74;100.00;100485.78;5132089;27;20207;-72
2021/09/16 02:13:22;;;;;;;2.47;2.00;;;;;;;15.76;100.00;100491.72;5131819;27;20635;-73
2021/09/16 02:15:47;;;;;;;3.80;1.80;;;;;;;15.78;100.00;100489.47;5131862;27;20302;-73
2021/09/16 02:18:13;;;;;;;2.37;1.70;;;;;;;15.73;100.00;100482.22;5131574;27;20197;-73
2021/09/16 02:20:38;;;;;;;1.70;1.60;;;;;;;15.75;100.00;100495.63;5131543;27;20225;-72
2021/09/16 02:23:04;;;;;;;2.70;1.40;;;;;;;15.70;100.00;100493.94;5131767;27;20165;-72
2021/09/16 02:25:30;;;;;;;1.07;0.80;;;;;;;15.63;100.00;100495.66;5130489;27;20172;-72
2021/09/16 02:27:55;;;;;;;1.63;1.30;;;;;;;15.55;100.00;100502.03;5131585;27;20522;-72
2021/09/16 02:30:21;;;;;;;1.73;0.60;;;;;;;15.48;100.00;100499.88;5131516;27;20252;-72
2021/09/16 02:32:46;;;;;;;1.63;0.67;;;;;;;15.45;100.00;100506.84;5131635;27;20408;-72
2021/09/16 02:35:12;;;;;;;1.00;0.50;;;;;;;15.41;100.00;100497.66;5131191;27;20165;-72
2021/09/16 02:37:39;;;;;;;1.07;0.57;;;;;;;15.35;100.00;100501.81;5131585;27;20531;-72
2021/09/16 02:40:08;;;;;;;0.83;0.50;;;;;;;15.31;100.00;100500.06;5131824;28;20674;-72
2021/09/16 02:42:36;;;;;;;0.20;0.20;;;;;;;15.22;100.00;100508.44;5131344;28;20624;-72
2021/09/16 02:45:01;;;;;;;1.90;0.50;;;;;;;15.16;100.00;100504.28;5131163;27;20184;-72
2021/09/16 02:47:27;;;;;;;0.53;0.40;;;;;;;15.15;100.00;100505.41;5131389;28;20495;-72
2021/09/16 02:49:52;;;;;;;1.03;0.30;;;;;;;15.11;100.00;100502.53;5131289;27;20640;-72
2021/09/16 02:52:18;;;;;;;0.10;0.10;;;;;;;15.06;100.00;100508.28;5131279;28;20181;-72
2021/09/16 02:54:43;;;;;;;0.70;0.50;;;;;;;15.06;100.00;100516.53;5131093;27;20177;-72
2021/09/16 02:57:08;;;;;;;2.10;1.23;;;;;;;15.00;100.00;100506.88;5130774;28;20172;-72
2021/09/16 02:59:34;;;;;;;2.37;0.40;;;;;;;14.98;100.00;100514.66;5131156;28;20728;-72
2021/09/16 03:01:59;;;;;;;4.47;0.53;;;;;;;14.97;100.00;100512.25;5131245;28;20176;-72
2021/09/16 03:04:24;;;;;;;0.60;0.40;;;;;;;14.95;100.00;100520.03;5131015;28;20239;-72
2021/09/16 03:06:50;;;;;;;0.87;0.70;;;;;;;14.93;100.00;100519.59;5131280;28;20206;-72
2021/09/16 03:09:15;;;;;;;0.73;0.30;;;;;;;14.92;100.00;100517.97;5131153;28;20260;-72
2021/09/16 03:11:41;;;;;;;1.40;0.40;;;;;;;14.88;100.00;100513.13;5131052;27;20199;-72
2021/09/16 03:14:06;;;;;;;0.60;0.30;;;;;;;14.86;100.00;100515.41;5112568;28;20184;-72
2021/09/16 03:16:31;;;;;;;1.50;0.50;;;;;;;14.83;100.00;100507.84;5131054;27;20207;-72
2021/09/16 03:18:57;;;;;;;0.73;0.33;;;;;;;14.80;100.00;100516.78;5131120;28;20208;-72
2021/09/16 03:21:22;;;;;;;0.30;0.30;;;;;;;14.78;100.00;100513.56;5131448;28;20521;-72
2021/09/16 03:23:48;;;;;;;1.03;0.50;;;;;;;14.78;100.00;100518.25;5131054;27;20585;-72
2021/09/16 03:26:14;;;;;;;3.40;0.70;;;;;;;14.73;100.00;100511.00;5131176;28;20176;-72
2021/09/16 03:28:40;;;;;;;0.50;0.30;;;;;;;14.69;100.00;100518.34;5131077;28;20172;-72
2021/09/16 03:31:06;;;;;;;6.33;0.43;;;;;;;14.71;100.00;100516.03;5131083;28;20165;-72
2021/09/16 03:33:32;;;;;;;1.70;0.40;;;;;;;14.72;100.00;100516.84;5130880;28;20550;-72
2021/09/16 03:35:58;;;;;;;1.23;0.30;;;;;;;14.72;100.00;100516.84;5131889;27;20186;-72
2021/09/16 03:38:23;;;;;;;1.83;0.30;;;;;;;14.66;100.00;100516.25;5134798;27;20196;-72
2021/09/16 03:40:48;;;;;;;0.63;0.40;;;;;;;14.59;100.00;100527.78;5134718;27;20173;-72
2021/09/16 03:43:14;;;;;;;1.07;0.47;;;;;;;14.54;100.00;100529.94;5134706;27;20193;-73
2021/09/16 03:45:39;;;;;;;0.20;0.20;;;;;;;14.49;100.00;100530.97;5134362;27;20172;-72
2021/09/16 03:48:05;;;;;;;0.37;0.30;;;;;;;14.48;100.00;100525.81;5134535;27;20204;-72
2021/09/16 03:50:30;;;;;;;1.70;0.40;;;;;;;14.38;100.00;100526.97;5134828;27;20177;-73
2021/09/16 03:52:55;;;;;;;1.10;1.00;;;;;;;14.34;100.00;100528.78;5134822;27;20195;-72
2021/09/16 03:55:21;;;;;;;0.43;0.37;;;;;;;14.33;100.00;100529.94;5134713;27;20173;-72
2021/09/16 03:57:46;;;;;;;1.30;0.40;;;;;;;14.32;100.00;100533.81;5134474;27;20543;-72
2021/09/16 04:00:12;;;;;;;0.30;0.30;;;;;;;14.28;100.00;100525.41;5134262;27;20548;-73
2021/09/16 04:02:39;;;;;;;0.47;0.40;;;;;;;14.28;100.00;100528.16;5134385;27;20168;-72
2021/09/16 04:05:04;;;;;;;0.73;0.40;;;;;;;14.27;100.00;100523.00;5134031;27;20183;-72
2021/09/16 04:07:30;;;;;;;3.53;0.47;;;;;;;14.27;100.00;100523.00;5134236;27;20613;-72
2021/09/16 04:09:55;;;;;;;1.67;0.40;;;;;;;14.27;100.00;100526.56;5134259;27;20172;-72
2021/09/16 04:12:20;;;;;;;0.83;0.50;;;;;;;14.23;100.00;100525.63;5134097;27;20176;-71
2021/09/16 04:14:46;;;;;;;0.47;0.47;;;;;;;14.22;100.00;100532.25;5133915;27;20195;-72
2021/09/16 04:17:11;;;;;;;0.23;0.20;;;;;;;14.22;100.00;100531.44;5134497;27;20256;-72
2021/09/16 04:19:36;;;;;;;2.47;0.40;;;;;;;14.19;100.00;100532.94;5134035;27;20215;-72
2021/09/16 04:22:02;;;;;;;0.47;0.33;;;;;;;14.19;100.00;100526.63;5134087;27;20678;-72
2021/09/16 04:24:28;;;;;;;2.33;0.30;;;;;;;14.18;100.00;100525.81;5133673;27;20173;-72
2021/09/16 04:26:53;;;;;;;1.23;0.27;;;;;;;14.19;100.00;100532.13;5133678;27;20263;-72
2021/09/16 04:29:19;;;;;;;0.70;0.70;;;;;;;14.18;100.00;100530.53;5133811;27;20173;-72
2021/09/16 04:31:44;;;;;;;1.57;0.37;;;;;;;14.15;100.00;100523.72;5133842;27;20173;-73
2021/09/16 04:34:10;;;;;;;1.23;0.40;;;;;;;14.15;100.00;100528.41;5115102;27;20195;-72
2021/09/16 04:36:36;;;;;;;2.60;0.40;;;;;;;14.11;100.00;100535.72;5133724;27;20530;-72
2021/09/16 04:39:05;;;;;;;1.23;1.03;;;;;;;14.12;100.00;100532.63;5134082;27;20204;-72
2021/09/16 04:41:31;;;;;;;0.30;0.30;;;;;;;14.12;100.00;100538.13;5133706;27;20180;-72
2021/09/16 04:43:57;;;;;;;3.50;0.30;;;;;;;14.10;100.00;100534.91;5133337;27;20192;-72
2021/09/16 04:46:23;;;;;;;2.03;0.47;;;;;;;14.11;100.00;100539.28;5133796;27;20177;-72
2021/09/16 04:48:48;;;;;;;0.90;0.60;;;;;;;14.09;100.00;100541.53;5132440;27;20694;-72
2021/09/16 04:51:14;;;;;;;0.40;0.40;;;;;;;14.11;100.00;100543.97;5133487;27;20188;-72
2021/09/16 04:53:39;;;;;;;2.23;0.60;;;;;;;14.10;100.00;100534.91;5114667;27;20199;-72
2021/09/16 04:56:05;;;;;;;1.50;0.60;;;;;;;14.11;100.00;100536.53;5132716;27;20176;-72
2021/09/16 04:58:30;;;;;;;0.83;0.57;;;;;;;14.13;100.00;100530.69;5114738;27;20257;-72
2021/09/16 05:00:55;;;;;;;0.70;0.50;;;;;;;14.13;100.00;100534.25;5133160;27;20656;-72
2021/09/16 05:03:21;;;;;;;2.20;0.60;;;;;;;14.12;100.00;100537.31;5132955;27;20189;-72
2021/09/16 05:05:46;;;;;;;5.87;0.80;;;;;;;14.12;100.00;100545.56;5132970;27;20632;-72
2021/09/16 05:08:13;;;;;;;0.93;0.70;;;;;;;14.13;100.00;100547.97;5133088;27;20632;-72
2021/09/16 05:10:39;;;;;;;4.33;0.83;;;;;;;14.15;100.00;100545.69;5132984;27;20169;-72
2021/09/16 05:13:04;;;;;;;0.90;0.90;;;;;;;14.14;100.00;100543.28;5133003;27;20177;-72
2021/09/16 05:15:29;;;;;;;2.17;1.13;;;;;;;14.15;100.00;100556.69;5132880;27;20177;-73
2021/09/16 05:17:55;;;;;;;2.73;0.90;;;;;;;14.15;100.00;100551.19;5132799;27;20213;-71
2021/09/16 05:20:20;;;;;;;0.33;0.33;;;;;;;14.16;100.00;100554.75;5132848;27;20624;-72
2021/09/16 05:22:46;;;;;;;0.50;0.50;;;;;;;14.17;100.00;100562.66;5132770;27;20538;-72
2021/09/16 05:25:11;;;;;;;3.03;0.30;;;;;;;14.19;100.00;100549.41;5132436;27;20213;-72
2021/09/16 05:27:36;;;;;;;0.30;0.30;;;;;;;14.22;100.00;100542.44;5131551;27;20280;-72
2021/09/16 05:30:03;;;;;;;2.90;1.00;;;;;;;14.21;100.00;100538.88;5124235;27;20188;-72
2021/09/16 05:32:29;;;;;;;0.57;0.57;;;;;;;14.23;100.00;100544.84;5132800;27;20173;-73
2021/09/16 05:34:55;;;;;;;1.60;0.80;;;;;;;14.22;100.00;100535.00;5132370;27;20546;-72
2021/09/16 05:37:21;;;;;;;4.87;1.07;;;;;;;14.22;100.00;100536.94;5132467;27;20181;-72
2021/09/16 05:39:46;;;;;;;0.40;0.40;;;;;;;14.24;100.00;100540.97;5132319;27;20260;-72
2021/09/16 05:42:12;;;;;;;0.57;0.37;;;;;;;14.26;100.00;100546.13;5131871;27;20180;-72
2021/09/16 05:44:37;;;;;;;0.67;0.67;;;;;;;14.25;100.00;100542.56;5132082;27;20169;-72
2021/09/16 05:47:03;;;;;;;0.30;0.30;;;;;;;14.24;100.00;100540.97;5132330;27;20169;-72
2021/09/16 05:49:28;;;;;;;0.30;0.30;;;;;;;14.24;100.00;100543.72;5132279;27;20505;-72
2021/09/16 05:51:54;;;;;;;0.93;0.40;;;;;;;14.25;100.00;100537.06;5131827;27;20259;-72
2021/09/16 05:54:20;;;;;;;0.70;0.70;;;;;;;14.28;100.00;100546.59;5132122;27;20204;-72
2021/09/16 05:56:47;;;;;;;1.87;1.47;;;;;;;14.27;100.00;100547.72;5132553;27;20245;-72
2021/09/16 05:59:13;;;;;;;1.17;0.40;;;;;;;14.28;100.00;100547.41;5132082;27;20200;-72
2021/09/16 06:01:38;;;;;;;0.83;0.40;;;;;;;14.30;100.00;100550.63;5132132;27;20176;-72
2021/09/16 06:04:03;;;;;;;0.13;0.13;;;;;;;14.30;100.00;100550.63;5131931;27;20176;-72
2021/09/16 06:06:29;;;;;;;3.70;0.60;;;;;;;14.34;100.00;100550.78;5132324;27;20718;-71
2021/09/16 06:08:54;;;;;;;0.83;0.47;;;;;;;14.37;100.00;100552.03;5131905;27;20435;-71
2021/09/16 06:11:20;;;;;;;0.20;0.20;;;;;;;14.39;100.00;100552.50;5131999;27;20180;-72
2021/09/16 06:13:45;;;;;;;1.50;0.23;;;;;;;14.38;100.00;100554.47;5131771;27;20616;-71
2021/09/16 06:16:10;;;;;;;2.07;0.40;;;;;;;14.39;100.00;100553.31;5131892;27;20280;-71
2021/09/16 06:18:36;;;;;;;2.13;0.30;;;;;;;14.40;100.00;100552.19;5131594;27;20624;-71
2021/09/16 06:21:02;;;;;;;0.53;0.30;;;;;;;14.42;100.00;100558.13;5130548;27;20180;-71
2021/09/16 06:23:27;;;;;;;0.30;0.20;;;;;;;14.43;100.00;100554.25;5123276;27;20264;-72
2021/09/16 06:25:53;;;;;;;0.10;0.10;;;;;;;14.45;100.00;100564.94;5131419;27;20268;-72
2021/09/16 06:28:18;;;;;;;5.40;0.80;;;;;;;14.44;100.00;100564.13;5131640;27;20222;-71
2021/09/16 06:30:43;;;;;;;9.63;0.53;;;;;;;14.44;100.00;100566.06;5131656;27;20200;-72
2021/09/16 06:33:13;;;;;;;0.30;0.30;;;;;;;14.40;100.00;100560.41;5131898;27;20172;-71
2021/09/16 06:35:38;;;;;;;0.40;0.40;;;;;;;14.42;100.00;100568.34;5131616;27;20199;-71
2021/09/16 06:38:03;;;;;;;0.63;0.40;;;;;;;14.39;100.00;100571.75;5131629;27;20659;-73
2021/09/16 06:40:28;;;;;;;0.83;0.47;;;;;;;14.41;100.00;100577.72;5131761;27;20561;-72
2021/09/16 06:42:54;;;;;;;4.43;0.60;;;;;;;14.39;100.00;100571.75;5131743;27;20530;-72
2021/09/16 06:45:19;;;;;;;0.67;0.50;;;;;;;14.42;100.00;100571.06;5131403;28;20529;-72
2021/09/16 06:47:45;;;;;;;1.37;0.20;;;;;;;14.45;100.00;100571.25;5131789;28;20168;-72
2021/09/16 06:50:10;;;;;;;0.50;0.40;;;;;;;14.45;100.00;100578.69;5131630;28;20526;-72
2021/09/16 06:52:36;;;;;;;5.23;0.83;;;;;;;14.48;100.00;100584.34;5131891;28;20176;-72
2021/09/16 06:55:01;;;;;;;0.60;0.40;;;;;;;14.48;100.00;100589.84;5131473;28;20255;-72
2021/09/16 06:57:26;;;;;;;1.90;1.40;;;;;;;14.47;100.00;100585.47;5131777;28;20212;-72
2021/09/16 06:59:52;;;;;;;1.40;0.43;;;;;;;14.43;100.00;100591.94;5131492;28;20655;-71
2021/09/16 07:02:17;;;;;;;1.00;0.30;;;;;;;14.40;100.00;100587.09;5131621;28;20168;-71
2021/09/16 07:04:43;;;;;;;0.00;0.00;;;;;;;14.43;100.00;100591.94;5131311;28;20212;-71
2021/09/16 07:07:08;;;;;;;0.50;0.43;;;;;;;14.47;100.00;100581.94;5131903;28;20169;-71
2021/09/16 07:09:35;;;;;;;0.10;0.10;;;;;;;14.51;100.00;100591.13;5136191;28;20204;-72
2021/09/16 07:12:01;;;;;;;0.63;0.30;;;;;;;14.45;100.00;100582.22;5136796;27;20643;-71
2021/09/16 07:14:27;;;;;;;0.20;0.20;;;;;;;14.39;100.00;100582.75;5136104;27;20168;-72
2021/09/16 07:16:53;;;;;;;0.20;0.20;;;;;;;14.46;100.00;100583.03;5135682;27;20699;-72
2021/09/16 07:19:18;;;;;;;0.57;0.43;;;;;;;14.53;100.00;100580.56;5135481;27;20236;-72
2021/09/16 07:21:44;;;;;;;0.97;0.40;;;;;;;14.62;100.00;100583.28;5135392;27;20216;-73
2021/09/16 07:24:10;;;;;;;0.10;0.10;;;;;;;14.70;100.00;100580.44;5135295;27;20172;-73
2021/09/16 07:26:35;;;;;;;3.70;0.50;;;;;;;14.83;100.00;100589.56;5134911;27;20528;-71
2021/09/16 07:29:01;;;;;;;0.20;0.20;;;;;;;14.89;100.00;100590.97;5135053;27;20172;-72
2021/09/16 07:31:28;;;;;;;1.00;0.37;;;;;;;14.94;100.00;100601.78;5134926;27;20167;-72
2021/09/16 07:33:54;;;;;;;0.00;0.00;;;;;;;15.03;100.00;100602.50;5134850;27;20268;-72
2021/09/16 07:36:19;;;;;;;0.67;0.67;;;;;;;15.13;100.00;100606.78;5135078;27;20251;-72
2021/09/16 07:38:44;;;;;;;0.70;0.40;;;;;;;15.22;100.00;100610.28;5134856;27;20202;-72
2021/09/16 07:41:10;;;;;;;0.27;0.27;;;;;;;15.32;100.00;100604.31;5134871;27;20189;-72
2021/09/16 07:43:35;;;;;;;0.40;0.40;;;;;;;15.45;100.00;100611.47;5134523;27;20172;-71
2021/09/16 07:46:00;;;;;;;1.47;0.40;;;;;;;15.51;100.00;100623.09;5134682;27;20184;-71
2021/09/16 07:48:26;;;;;;;0.50;0.50;;;;;;;15.57;100.00;100613.47;5134506;27;20172;-72
2021/09/16 07:50:51;;;;;;;0.30;0.30;;;;;;;15.58;100.00;100614.25;5134504;27;20165;-71
2021/09/16 07:53:16;;;;;;;0.57;0.40;;;;;;;15.59;100.00;100621.38;5134068;27;20263;-71
2021/09/16 07:55:42;;;;;;;1.50;0.63;;;;;;;15.57;100.00;100618.16;5134046;27;20172;-71
2021/09/16 07:58:07;;;;;;;1.50;1.33;;;;;;;15.57;100.00;100618.97;5134219;27;20172;-71
2021/09/16 08:00:33;;;;;;;0.57;0.57;;;;;;;15.54;100.00;100616.91;5134331;27;20641;-71
2021/09/16 08:02:59;;;;;;;2.97;1.27;;;;;;;15.55;100.00;100604.75;5134254;27;20209;-71
2021/09/16 08:05:24;;;;;;;0.87;0.33;;;;;;;15.53;100.00;100611.75;5134093;27;20272;-71
2021/09/16 08:07:49;;;;;;;0.70;0.40;;;;;;;15.56;100.00;100617.38;5134185;27;20200;-71
2021/09/16 08:10:15;;;;;;;1.93;0.30;;;;;;;15.45;100.00;100616.97;5134096;27;20170;-71
2021/09/16 08:12:42;;;;;;;0.20;0.20;;;;;;;15.36;100.00;100619.03;5134068;27;20217;-71
2021/09/16 08:15:08;;;;;;;0.20;0.20;;;;;;;15.29;100.00;100615.22;5133797;27;20632;-72
2021/09/16 08:17:33;;;;;;;0.30;0.30;;;;;;;15.30;100.00;100609.38;5115539;27;20172;-71
2021/09/16 08:19:59;;;;;;;0.23;0.23;;;;;;;15.36;100.00;100616.28;5134521;27;20295;-71
2021/09/16 08:22:24;;;;;;;1.80;0.40;;;;;;;15.46;100.00;100620.53;5132404;27;20219;-71
2021/09/16 08:24:50;;;;;;;0.33;0.33;;;;;;;15.44;100.00;100620.88;5133607;27;20164;-71
2021/09/16 08:27:15;;;;;;;2.60;0.70;;;;;;;15.50;100.00;100615.19;5133838;27;20535;-71
2021/09/16 08:29:41;;;;;;;0.37;0.30;;;;;;;15.54;100.00;100616.09;5133826;27;20180;-72
2021/09/16 08:32:07;;;;;;;2.10;0.70;;;;;;;15.46;100.00;100604.81;5133699;27;20187;-71
2021/09/16 08:34:35;;;;;;;0.70;0.70;;;;;;;15.45;100.00;100594.16;5133334;27;20203;-71
2021/09/16 08:37:00;;;;;;;2.27;0.30;;;;;;;15.46;100.00;100610.34;5133598;27;20534;-71
2021/09/16 08:39:26;;;;;;;0.87;0.33;;;;;;;15.48;100.00;100613.56;5133474;27;20208;-71
2021/09/16 08:41:51;;;;;;;1.23;0.50;;;;;;;15.52;100.00;100613.69;5133554;27;20196;-71
2021/09/16 08:44:17;;;;;;;3.80;0.60;;;;;;;15.60;100.00;100612.00;5133215;27;20169;-71
2021/09/16 08:46:42;;;;;;;0.90;0.90;;;;;;;15.61;100.00;100619.13;5133355;27;20228;-71
2021/09/16 08:49:08;;;;;;;3.80;1.00;;;;;;;15.67;100.00;100621.31;5133486;27;20924;-71
2021/09/16 08:51:34;;;;;;;2.43;0.70;;;;;;;15.72;100.00;100625.81;5133641;27;20611;-72
2021/09/16 08:54:01;;;;;;;0.50;0.50;;;;;;;15.62;100.00;100616.06;5133193;27;20169;-72
2021/09/16 08:56:28;;;;;;;1.90;1.47;;;;;;;15.58;100.00;100617.03;5133263;27;20164;-72
2021/09/16 08:59:00;;;;;;;0.40;0.27;;;;;;;15.51;100.00;100623.09;5114638;27;20193;-71
2021/09/16 09:01:26;;;;;;;0.40;0.40;;;;;;;15.49;100.00;100622.63;5133355;27;20255;-71
2021/09/16 09:03:51;;;;;;;3.23;0.50;;;;;;;15.37;100.00;100628.09;5132657;27;20719;-71
2021/09/16 09:06:36;;;;;;;0.50;0.50;;;;;;;15.19;100.00;100624.72;5133036;27;20165;-71
2021/09/16 09:09:20;;;;;;;0.80;0.80;;;;;;;15.18;100.00;100620.31;5133022;27;20237;-71
2021/09/16 09:12:12;;;;;;;1.93;1.00;;;;;;;15.22;100.00;100615.78;5132985;27;20168;-72
2021/09/16 09:14:44;;;;;;;0.87;0.53;;;;;;;15.25;100.00;100617.03;5132746;27;20175;-71
2021/09/16 09:17:30;;;;;;;0.93;0.70;;;;;;;15.26;100.00;100624.97;5132937;27;20540;-71
2021/09/16 09:20:05;;;;;;;1.43;0.60;;;;;;;15.20;100.00;100631.03;5132633;27;20200;-72
2021/09/16 09:22:33;;;;;;;0.40;0.40;;;;;;;15.14;100.00;100636.72;5129127;27;20187;-75
2021/09/16 09:25:10;;;;;;;0.20;0.20;;;;;;;15.12;100.00;100630.75;5128727;27;20241;-74
2021/09/16 09:27:47;;;;;;;1.53;0.43;;;;;;;15.17;100.00;100632.47;5132723;27;20176;-72
2021/09/16 09:30:19;;;;;;;0.67;0.30;;;;;;;15.24;100.00;100648.47;5114336;27;20207;-73
2021/09/16 09:33:02;;;;;;;0.87;0.57;;;;;;;15.25;100.00;100634.38;5132124;27;20302;-73
2021/09/16 09:35:38;;;;;;;3.30;1.33;;;;;;;15.33;100.00;100644.47;5131827;27;20173;-73
2021/09/16 09:38:21;;;;;;;0.67;0.40;;;;;;;15.40;100.00;100642.00;5132400;27;20174;-72
2021/09/16 09:40:52;;;;;;;0.40;0.40;;;;;;;15.43;100.00;100635.78;5132761;27;20193;-73
2021/09/16 09:43:27;;;;;;;0.60;0.40;;;;;;;15.44;100.00;100629.16;5132488;27;20628;-73
2021/09/16 09:46:10;;;;;;;1.47;0.70;;;;;;;15.46;100.00;100640.63;5132047;27;20173;-73
2021/09/16 09:48:40;;;;;;;8.10;1.03;;;;;;;15.55;100.00;100635.03;5132213;27;20176;-72
2021/09/16 09:51:06;;;;;;;0.83;0.70;;;;;;;15.59;100.00;100635.16;5132163;27;20173;-73
2021/09/16 09:53:46;;;;;;;0.73;0.73;;;;;;;15.66;100.00;100649.22;5132027;27;20259;-73
2021/09/16 09:56:14;;;;;;;0.80;0.80;;;;;;;15.71;100.00;100649.00;5132184;27;20688;-73
2021/09/16 09:58:40;;;;;;;0.60;0.60;;;;;;;15.67;100.00;100645.31;5131994;27;20199;-73
2021/09/16 10:01:34;;;;;;;0.80;0.80;;;;;;;15.74;100.00;100656.56;5131974;27;20176;-72
2021/09/16 10:04:23;;;;;;;0.60;0.60;;;;;;;15.82;100.00;100652.94;5131546;27;20532;-73
2021/09/16 10:06:49;;;;;;;0.57;0.57;;;;;;;15.99;100.00;100663.75;5132055;27;20234;-73
2021/09/16 10:09:15;;;;;;;1.07;0.93;;;;;;;16.08;100.00;100668.34;5131863;27;20644;-73
2021/09/16 10:11:46;;;;;;;1.17;0.40;;;;;;;15.96;100.00;100669.13;5132117;27;20235;-73
2021/09/16 10:14:12;;;;;;;0.40;0.40;;;;;;;15.89;100.00;100660.63;5131578;27;20211;-73
2021/09/16 10:16:38;;;;;;;1.80;1.00;;;;;;;15.79;100.00;100653.63;5131779;27;20176;-73
2021/09/16 10:19:04;;;;;;;1.70;1.60;;;;;;;15.79;100.00;100663.81;5131584;27;20200;-73
2021/09/16 10:21:29;;;;;;;1.00;1.00;;;;;;;15.86;100.00;100664.88;5131789;27;20175;-73
2021/09/16 10:23:57;;;;;;;1.33;1.03;;;;;;;16.03;100.00;100661.91;5131455;27;20173;-73
2021/09/16 10:26:38;;;;;;;0.83;0.83;;;;;;;15.99;100.00;100663.75;5131635;27;20225;-72
2021/09/16 10:29:31;;;;;;;1.03;1.03;;;;;;;15.91;100.00;100664.66;5131596;27;20620;-73
2021/09/16 10:31:59;;;;;;;2.60;1.23;;;;;;;15.82;100.00;100666.69;5131657;27;20183;-73
2021/09/16 10:34:44;;;;;;;1.83;1.30;;;;;;;15.84;100.00;100661.66;5112673;27;20536;-73
2021/09/16 10:37:11;;;;;;;1.53;1.43;;;;;;;15.79;100.00;100664.63;5131457;27;20176;-73
2021/09/16 10:39:38;;;;;;;1.40;1.10;;;;;;;15.80;100.00;100665.44;5113041;27;20297;-72
2021/09/16 10:42:04;;;;;;;1.33;1.20;;;;;;;16.00;100.00;100664.53;5131504;27;20647;-73
2021/09/16 10:44:30;;;;;;;2.40;2.20;;;;;;;16.33;100.00;100683.75;5131037;27;20165;-73
2021/09/16 10:47:00;;;;;;;0.70;0.70;;;;;;;16.55;100.00;100655.72;5130563;28;20173;-73
2021/09/16 10:49:28;;;;;;;5.23;1.73;;;;;;;16.68;100.00;100672.28;5131455;28;20183;-72
2021/09/16 10:52:19;;;;;;;0.67;0.57;;;;;;;16.77;100.00;100681.22;5131321;28;20173;-73
2021/09/16 10:54:44;;;;;;;1.70;1.40;;;;;;;16.83;100.00;100679.84;5130771;28;20173;-72
2021/09/16 10:57:12;;;;;;;5.03;1.40;;;;;;;16.83;98.76;100663.28;5131365;28;20171;-73
2021/09/16 10:59:50;;;;;;;1.37;0.90;;;;;;;16.80;100.00;100669.53;5131233;28;20211;-73
2021/09/16 11:02:17;;;;;;;3.57;1.20;;;;;;;16.86;100.00;100679.97;5131252;28;20628;-73
2021/09/16 11:04:57;;;;;;;4.03;1.50;;;;;;;16.88;100.00;100685.13;5112609;28;20550;-73
2021/09/16 11:07:32;;;;;;;1.87;1.43;;;;;;;17.00;100.00;100742.28;5131214;28;20173;-73
2021/09/16 11:10:19;;;;;;;0.63;0.63;;;;;;;16.95;97.63;100688.91;5131195;28;20662;-73
2021/09/16 11:12:50;;;;;;;1.23;1.13;;;;;;;16.85;97.99;100685.81;5079868;28;20339;-73
2021/09/16 11:15:27;;;;;;;1.10;1.10;;;;;;;16.88;99.02;100677.66;5130837;28;20169;-73
2021/09/16 11:18:06;;;;;;;1.20;1.07;;;;;;;16.82;99.64;100681.00;5131094;28;20530;-73